sensor_id;sensor_type;location;lat;lon;timestamp;temperature;humidity
32614;DHT22;19031;51.400;6.770;2023-04-23T00:00:40;11.00;99.90
32614;DHT22;19031;51.400;6.770;2023-04-23T00:03:07;11.00;99.90
32614;DHT22;19031;51.400;6.770;2023-04-23T00:05:35;11.00;99.90
32614;DHT22;19031;51.400;6.770;2023-04-23T00:08:02;11.00;99.90
32614;DHT22;19031;51.400;6.770;2023-04-23T00:10:28;10.90;99.90
32614;DHT22;19031;51.400;6.770;2023-04-23T00:12:54;10.90;99.90
32614;DHT22;19031;51.400;6.770;2023-04-23T00:15:20;10.90;99.90
32614;DHT22;19031;51.400;6.770;2023-04-23T00:17:47;10.90;99.90
32614;DHT22;19031;51.400;6.770;2023-04-23T00:20:13;10.90;99.90
32614;DHT22;19031;51.400;6.770;2023-04-23T00:22:38;11.00;99.90
32614;DHT22;19031;51.400;6.770;2023-04-23T00:25:04;11.00;99.90
32614;DHT22;19031;51.400;6.770;2023-04-23T00:27:30;10.90;99.90
32614;DHT22;19031;51.400;6.770;2023-04-23T00:29:56;10.90;99.90
32614;DHT22;19031;51.400;6.770;2023-04-23T00:32:21;10.90;99.90
32614;DHT22;19031;51.400;6.770;2023-04-23T00:34:47;10.80;99.90
32614;DHT22;19031;51.400;6.770;2023-04-23T00:37:16;10.90;99.90
32614;DHT22;19031;51.400;6.770;2023-04-23T00:39:42;10.80;99.90
32614;DHT22;19031;51.400;6.770;2023-04-23T00:42:09;10.90;99.90
32614;DHT22;19031;51.400;6.770;2023-04-23T00:44:39;10.90;99.90
32614;DHT22;19031;51.400;6.770;2023-04-23T00:47:05;10.80;99.90
32614;DHT22;19031;51.400;6.770;2023-04-23T00:49:33;10.80;99.90
32614;DHT22;19031;51.400;6.770;2023-04-23T00:51:59;10.90;99.90
32614;DHT22;19031;51.400;6.770;2023-04-23T00:54:27;10.80;99.90
32614;DHT22;19031;51.400;6.770;2023-04-23T00:56:54;10.80;99.90
32614;DHT22;19031;51.400;6.770;2023-04-23T00:59:20;10.70;99.90
32614;DHT22;19031;51.400;6.770;2023-04-23T01:01:46;10.80;99.90
32614;DHT22;19031;51.400;6.770;2023-04-23T01:04:13;10.80;99.90
32614;DHT22;19031;51.400;6.770;2023-04-23T01:06:41;10.70;99.90
32614;DHT22;19031;51.400;6.770;2023-04-23T01:09:07;10.70;99.90
32614;DHT22;19031;51.400;6.770;2023-04-23T01:11:36;10.60;99.90
32614;DHT22;19031;51.400;6.770;2023-04-23T01:14:03;10.50;99.90
32614;DHT22;19031;51.400;6.770;2023-04-23T01:16:29;10.60;99.90
32614;DHT22;19031;51.400;6.770;2023-04-23T01:18:55;10.50;99.90
32614;DHT22;19031;51.400;6.770;2023-04-23T01:21:21;10.50;99.90
32614;DHT22;19031;51.400;6.770;2023-04-23T01:23:47;10.50;99.90
32614;DHT22;19031;51.400;6.770;2023-04-23T01:26:13;10.40;99.90
32614;DHT22;19031;51.400;6.770;2023-04-23T01:28:40;10.40;99.90
32614;DHT22;19031;51.400;6.770;2023-04-23T01:31:07;10.40;99.90
32614;DHT22;19031;51.400;6.770;2023-04-23T01:33:33;10.30;99.90
32614;DHT22;19031;51.400;6.770;2023-04-23T01:35:59;10.30;99.90
32614;DHT22;19031;51.400;6.770;2023-04-23T01:38:26;10.20;99.90
32614;DHT22;19031;51.400;6.770;2023-04-23T01:40:52;10.30;99.90
32614;DHT22;19031;51.400;6.770;2023-04-23T01:43:19;10.20;99.90
32614;DHT22;19031;51.400;6.770;2023-04-23T01:45:45;10.10;99.90
32614;DHT22;19031;51.400;6.770;2023-04-23T01:48:11;10.10;99.90
32614;DHT22;19031;51.400;6.770;2023-04-23T01:50:36;10.10;99.90
32614;DHT22;19031;51.400;6.770;2023-04-23T01:53:03;10.10;99.90
32614;DHT22;19031;51.400;6.770;2023-04-23T01:55:28;10.10;99.90
32614;DHT22;19031;51.400;6.770;2023-04-23T01:57:54;9.90;99.90
32614;DHT22;19031;51.400;6.770;2023-04-23T02:00:20;9.90;99.90
32614;DHT22;19031;51.400;6.770;2023-04-23T02:02:45;9.80;99.90
32614;DHT22;19031;51.400;6.770;2023-04-23T02:05:14;9.80;99.90
32614;DHT22;19031;51.400;6.770;2023-04-23T02:07:41;9.80;99.90
32614;DHT22;19031;51.400;6.770;2023-04-23T02:10:08;9.80;99.90
32614;DHT22;19031;51.400;6.770;2023-04-23T02:12:35;9.70;99.90
32614;DHT22;19031;51.400;6.770;2023-04-23T02:15:01;9.60;99.90
32614;DHT22;19031;51.400;6.770;2023-04-23T02:17:27;9.60;99.90
32614;DHT22;19031;51.400;6.770;2023-04-23T02:19:53;9.50;99.90
32614;DHT22;19031;51.400;6.770;2023-04-23T02:22:20;9.50;99.90
32614;DHT22;19031;51.400;6.770;2023-04-23T02:24:52;9.60;99.90
32614;DHT22;19031;51.400;6.770;2023-04-23T02:27:18;9.50;99.90
32614;DHT22;19031;51.400;6.770;2023-04-23T02:29:44;9.40;99.90
32614;DHT22;19031;51.400;6.770;2023-04-23T02:32:10;9.40;99.90
32614;DHT22;19031;51.400;6.770;2023-04-23T02:34:35;9.30;99.90
32614;DHT22;19031;51.400;6.770;2023-04-23T02:37:01;9.30;99.90
32614;DHT22;19031;51.400;6.770;2023-04-23T02:39:29;9.30;99.90
32614;DHT22;19031;51.400;6.770;2023-04-23T02:41:55;9.20;99.90
32614;DHT22;19031;51.400;6.770;2023-04-23T02:44:21;9.20;99.90
32614;DHT22;19031;51.400;6.770;2023-04-23T02:46:46;9.20;99.90
32614;DHT22;19031;51.400;6.770;2023-04-23T02:49:12;9.20;99.90
32614;DHT22;19031;51.400;6.770;2023-04-23T02:51:39;9.20;99.90
32614;DHT22;19031;51.400;6.770;2023-04-23T02:54:04;9.20;99.90
32614;DHT22;19031;51.400;6.770;2023-04-23T02:56:30;9.30;99.90
32614;DHT22;19031;51.400;6.770;2023-04-23T02:58:56;9.30;99.90
32614;DHT22;19031;51.400;6.770;2023-04-23T03:01:21;9.30;99.90
32614;DHT22;19031;51.400;6.770;2023-04-23T03:03:47;9.30;99.90
32614;DHT22;19031;51.400;6.770;2023-04-23T03:06:13;9.30;99.90
32614;DHT22;19031;51.400;6.770;2023-04-23T03:08:38;9.40;99.90
32614;DHT22;19031;51.400;6.770;2023-04-23T03:11:04;9.50;99.90
32614;DHT22;19031;51.400;6.770;2023-04-23T03:13:29;9.50;99.90
32614;DHT22;19031;51.400;6.770;2023-04-23T03:15:55;9.60;99.90
32614;DHT22;19031;51.400;6.770;2023-04-23T03:18:21;9.50;99.90
32614;DHT22;19031;51.400;6.770;2023-04-23T03:20:46;9.50;99.90
32614;DHT22;19031;51.400;6.770;2023-04-23T03:23:12;9.50;99.90
32614;DHT22;19031;51.400;6.770;2023-04-23T03:25:38;9.50;99.90
32614;DHT22;19031;51.400;6.770;2023-04-23T03:28:04;9.50;99.90
32614;DHT22;19031;51.400;6.770;2023-04-23T03:30:29;9.50;99.90
32614;DHT22;19031;51.400;6.770;2023-04-23T03:32:56;9.50;99.90
32614;DHT22;19031;51.400;6.770;2023-04-23T03:35:22;9.40;99.90
32614;DHT22;19031;51.400;6.770;2023-04-23T03:37:48;9.50;99.90
32614;DHT22;19031;51.400;6.770;2023-04-23T03:40:14;9.50;99.90
32614;DHT22;19031;51.400;6.770;2023-04-23T03:42:40;9.40;99.90
32614;DHT22;19031;51.400;6.770;2023-04-23T03:45:06;9.40;99.90
32614;DHT22;19031;51.400;6.770;2023-04-23T03:47:32;9.30;99.90
32614;DHT22;19031;51.400;6.770;2023-04-23T03:49:57;9.40;99.90
32614;DHT22;19031;51.400;6.770;2023-04-23T03:52:23;9.30;99.90
32614;DHT22;19031;51.400;6.770;2023-04-23T03:54:48;9.40;99.90
32614;DHT22;19031;51.400;6.770;2023-04-23T03:57:14;9.30;99.90
32614;DHT22;19031;51.400;6.770;2023-04-23T03:59:40;9.20;99.90
32614;DHT22;19031;51.400;6.770;2023-04-23T04:02:06;9.20;99.90
32614;DHT22;19031;51.400;6.770;2023-04-23T04:04:32;9.20;99.90
32614;DHT22;19031;51.400;6.770;2023-04-23T04:06:58;9.20;99.90
32614;DHT22;19031;51.400;6.770;2023-04-23T04:09:27;9.30;99.90
32614;DHT22;19031;51.400;6.770;2023-04-23T04:11:53;9.40;99.90
32614;DHT22;19031;51.400;6.770;2023-04-23T04:14:19;9.20;99.90
32614;DHT22;19031;51.400;6.770;2023-04-23T04:16:45;9.20;99.90
32614;DHT22;19031;51.400;6.770;2023-04-23T04:19:10;9.20;99.90
32614;DHT22;19031;51.400;6.770;2023-04-23T04:21:36;9.20;99.90
32614;DHT22;19031;51.400;6.770;2023-04-23T04:24:02;9.30;99.90
32614;DHT22;19031;51.400;6.770;2023-04-23T04:26:29;9.20;99.90
32614;DHT22;19031;51.400;6.770;2023-04-23T04:28:59;9.20;99.90
32614;DHT22;19031;51.400;6.770;2023-04-23T04:31:26;9.10;99.90
32614;DHT22;19031;51.400;6.770;2023-04-23T04:33:53;9.10;99.90
32614;DHT22;19031;51.400;6.770;2023-04-23T04:36:20;9.20;99.90
32614;DHT22;19031;51.400;6.770;2023-04-23T04:38:46;9.20;99.90
32614;DHT22;19031;51.400;6.770;2023-04-23T04:41:11;9.10;99.90
32614;DHT22;19031;51.400;6.770;2023-04-23T04:43:38;9.20;99.90
32614;DHT22;19031;51.400;6.770;2023-04-23T04:46:03;9.20;99.90
32614;DHT22;19031;51.400;6.770;2023-04-23T04:48:29;9.20;99.90
32614;DHT22;19031;51.400;6.770;2023-04-23T04:50:55;9.10;99.90
32614;DHT22;19031;51.400;6.770;2023-04-23T04:53:21;9.10;99.90
32614;DHT22;19031;51.400;6.770;2023-04-23T04:55:46;9.10;99.90
32614;DHT22;19031;51.400;6.770;2023-04-23T04:58:12;9.10;99.90
32614;DHT22;19031;51.400;6.770;2023-04-23T05:00:38;9.10;99.90
32614;DHT22;19031;51.400;6.770;2023-04-23T05:03:04;9.10;99.90
32614;DHT22;19031;51.400;6.770;2023-04-23T05:05:31;9.10;99.90
32614;DHT22;19031;51.400;6.770;2023-04-23T05:07:57;9.20;99.90
32614;DHT22;19031;51.400;6.770;2023-04-23T05:10:29;9.30;99.90
32614;DHT22;19031;51.400;6.770;2023-04-23T05:12:56;9.50;99.90
32614;DHT22;19031;51.400;6.770;2023-04-23T05:15:22;9.70;99.90
32614;DHT22;19031;51.400;6.770;2023-04-23T05:17:47;9.90;99.90
32614;DHT22;19031;51.400;6.770;2023-04-23T05:20:14;10.10;99.90
32614;DHT22;19031;51.400;6.770;2023-04-23T05:22:41;10.20;99.90
32614;DHT22;19031;51.400;6.770;2023-04-23T05:25:07;10.30;99.90
32614;DHT22;19031;51.400;6.770;2023-04-23T05:27:34;10.40;99.90
32614;DHT22;19031;51.400;6.770;2023-04-23T05:30:04;10.50;99.90
32614;DHT22;19031;51.400;6.770;2023-04-23T05:32:31;10.60;99.90
32614;DHT22;19031;51.400;6.770;2023-04-23T05:34:57;10.60;99.90
32614;DHT22;19031;51.400;6.770;2023-04-23T05:37:24;10.70;99.90
32614;DHT22;19031;51.400;6.770;2023-04-23T05:39:50;10.70;99.90
32614;DHT22;19031;51.400;6.770;2023-04-23T05:42:15;10.80;99.90
32614;DHT22;19031;51.400;6.770;2023-04-23T05:44:41;10.80;99.90
32614;DHT22;19031;51.400;6.770;2023-04-23T05:47:07;10.90;99.90
32614;DHT22;19031;51.400;6.770;2023-04-23T05:49:33;10.90;99.90
32614;DHT22;19031;51.400;6.770;2023-04-23T05:51:59;11.00;99.90
32614;DHT22;19031;51.400;6.770;2023-04-23T05:54:27;11.00;99.90
32614;DHT22;19031;51.400;6.770;2023-04-23T05:56:52;11.10;99.90
32614;DHT22;19031;51.400;6.770;2023-04-23T05:59:18;11.00;99.90
32614;DHT22;19031;51.400;6.770;2023-04-23T06:01:44;11.20;99.90
32614;DHT22;19031;51.400;6.770;2023-04-23T06:04:09;11.20;99.90
32614;DHT22;19031;51.400;6.770;2023-04-23T06:06:35;11.20;99.90
32614;DHT22;19031;51.400;6.770;2023-04-23T06:09:01;11.20;99.90
32614;DHT22;19031;51.400;6.770;2023-04-23T06:11:26;11.30;99.90
32614;DHT22;19031;51.400;6.770;2023-04-23T06:13:52;11.30;99.90
32614;DHT22;19031;51.400;6.770;2023-04-23T06:16:17;11.30;99.90
32614;DHT22;19031;51.400;6.770;2023-04-23T06:18:43;11.40;99.90
32614;DHT22;19031;51.400;6.770;2023-04-23T06:21:09;11.40;99.90
32614;DHT22;19031;51.400;6.770;2023-04-23T06:23:34;11.60;99.90
32614;DHT22;19031;51.400;6.770;2023-04-23T06:26:01;11.60;99.90
32614;DHT22;19031;51.400;6.770;2023-04-23T06:28:28;11.70;99.90
32614;DHT22;19031;51.400;6.770;2023-04-23T06:30:54;11.70;99.90
32614;DHT22;19031;51.400;6.770;2023-04-23T06:33:19;11.80;99.90
32614;DHT22;19031;51.400;6.770;2023-04-23T06:35:45;11.90;99.90
32614;DHT22;19031;51.400;6.770;2023-04-23T06:38:11;12.00;99.90
32614;DHT22;19031;51.400;6.770;2023-04-23T06:40:37;11.90;99.90
32614;DHT22;19031;51.400;6.770;2023-04-23T06:43:02;12.10;99.90
32614;DHT22;19031;51.400;6.770;2023-04-23T06:45:33;12.20;99.90
32614;DHT22;19031;51.400;6.770;2023-04-23T06:47:59;12.20;99.90
32614;DHT22;19031;51.400;6.770;2023-04-23T06:50:25;12.20;99.90
32614;DHT22;19031;51.400;6.770;2023-04-23T06:52:51;12.20;99.90
32614;DHT22;19031;51.400;6.770;2023-04-23T06:55:17;12.30;99.90
32614;DHT22;19031;51.400;6.770;2023-04-23T06:57:43;12.40;99.90
32614;DHT22;19031;51.400;6.770;2023-04-23T07:00:09;12.60;99.90
32614;DHT22;19031;51.400;6.770;2023-04-23T07:02:35;12.70;99.90
32614;DHT22;19031;51.400;6.770;2023-04-23T07:05:01;12.80;99.90
32614;DHT22;19031;51.400;6.770;2023-04-23T07:07:27;13.00;99.90
32614;DHT22;19031;51.400;6.770;2023-04-23T07:09:52;13.10;99.90
32614;DHT22;19031;51.400;6.770;2023-04-23T07:12:18;13.20;99.90
32614;DHT22;19031;51.400;6.770;2023-04-23T07:14:44;13.40;99.90
32614;DHT22;19031;51.400;6.770;2023-04-23T07:17:10;13.70;99.90
32614;DHT22;19031;51.400;6.770;2023-04-23T07:19:36;13.80;99.90
32614;DHT22;19031;51.400;6.770;2023-04-23T07:22:02;14.10;99.90
32614;DHT22;19031;51.400;6.770;2023-04-23T07:24:27;14.30;99.90
32614;DHT22;19031;51.400;6.770;2023-04-23T07:26:53;14.60;99.90
32614;DHT22;19031;51.400;6.770;2023-04-23T07:29:19;14.90;99.90
32614;DHT22;19031;51.400;6.770;2023-04-23T07:31:45;14.90;99.90
32614;DHT22;19031;51.400;6.770;2023-04-23T07:34:11;15.10;99.90
32614;DHT22;19031;51.400;6.770;2023-04-23T07:36:37;15.30;99.90
32614;DHT22;19031;51.400;6.770;2023-04-23T07:39:03;15.60;99.90
32614;DHT22;19031;51.400;6.770;2023-04-23T07:41:30;15.80;99.90
32614;DHT22;19031;51.400;6.770;2023-04-23T07:43:55;16.00;99.90
32614;DHT22;19031;51.400;6.770;2023-04-23T07:46:21;16.30;99.90
32614;DHT22;19031;51.400;6.770;2023-04-23T07:48:47;16.50;99.90
32614;DHT22;19031;51.400;6.770;2023-04-23T07:51:12;16.50;99.90
32614;DHT22;19031;51.400;6.770;2023-04-23T07:53:38;16.70;99.90
32614;DHT22;19031;51.400;6.770;2023-04-23T07:56:04;16.90;99.90
32614;DHT22;19031;51.400;6.770;2023-04-23T07:58:29;16.70;99.90
32614;DHT22;19031;51.400;6.770;2023-04-23T08:00:57;16.90;99.90
32614;DHT22;19031;51.400;6.770;2023-04-23T08:03:23;17.20;99.90
32614;DHT22;19031;51.400;6.770;2023-04-23T08:05:48;17.40;99.90
32614;DHT22;19031;51.400;6.770;2023-04-23T08:08:17;17.70;99.90
32614;DHT22;19031;51.400;6.770;2023-04-23T08:10:42;17.80;99.90
32614;DHT22;19031;51.400;6.770;2023-04-23T08:13:08;17.90;99.90
32614;DHT22;19031;51.400;6.770;2023-04-23T08:15:34;18.10;99.90
32614;DHT22;19031;51.400;6.770;2023-04-23T08:17:59;18.20;99.90
32614;DHT22;19031;51.400;6.770;2023-04-23T08:20:25;18.30;99.90
32614;DHT22;19031;51.400;6.770;2023-04-23T08:22:51;18.60;99.90
32614;DHT22;19031;51.400;6.770;2023-04-23T08:25:19;18.90;99.90
32614;DHT22;19031;51.400;6.770;2023-04-23T08:27:45;18.80;99.90
32614;DHT22;19031;51.400;6.770;2023-04-23T08:30:11;18.90;99.90
32614;DHT22;19031;51.400;6.770;2023-04-23T08:32:40;19.10;99.90
32614;DHT22;19031;51.400;6.770;2023-04-23T08:35:06;19.20;99.90
32614;DHT22;19031;51.400;6.770;2023-04-23T08:37:33;19.40;99.90
32614;DHT22;19031;51.400;6.770;2023-04-23T08:39:59;19.50;99.90
32614;DHT22;19031;51.400;6.770;2023-04-23T08:45:06;19.60;99.90
32614;DHT22;19031;51.400;6.770;2023-04-23T08:47:32;19.80;99.90
32614;DHT22;19031;51.400;6.770;2023-04-23T08:49:59;19.80;99.90
32614;DHT22;19031;51.400;6.770;2023-04-23T08:52:28;20.10;99.90
32614;DHT22;19031;51.400;6.770;2023-04-23T08:54:59;20.10;99.90
32614;DHT22;19031;51.400;6.770;2023-04-23T08:57:26;19.90;99.90
32614;DHT22;19031;51.400;6.770;2023-04-23T08:59:52;19.40;99.90
32614;DHT22;19031;51.400;6.770;2023-04-23T09:02:18;19.30;99.90
32614;DHT22;19031;51.400;6.770;2023-04-23T09:04:47;19.20;99.90
32614;DHT22;19031;51.400;6.770;2023-04-23T09:07:13;19.20;99.90
32614;DHT22;19031;51.400;6.770;2023-04-23T09:09:40;19.40;99.90
32614;DHT22;19031;51.400;6.770;2023-04-23T09:12:07;19.40;99.90
32614;DHT22;19031;51.400;6.770;2023-04-23T09:14:38;19.30;99.90
32614;DHT22;19031;51.400;6.770;2023-04-23T09:17:04;19.30;99.90
32614;DHT22;19031;51.400;6.770;2023-04-23T09:19:31;19.70;99.90
32614;DHT22;19031;51.400;6.770;2023-04-23T09:21:57;20.00;99.90
32614;DHT22;19031;51.400;6.770;2023-04-23T09:24:25;20.30;99.90
32614;DHT22;19031;51.400;6.770;2023-04-23T09:26:51;20.40;99.90
32614;DHT22;19031;51.400;6.770;2023-04-23T09:29:22;20.80;99.90
32614;DHT22;19031;51.400;6.770;2023-04-23T09:31:50;21.30;99.90
32614;DHT22;19031;51.400;6.770;2023-04-23T09:34:21;21.50;99.90
32614;DHT22;19031;51.400;6.770;2023-04-23T09:36:54;21.30;99.90
32614;DHT22;19031;51.400;6.770;2023-04-23T09:39:22;21.40;99.90
32614;DHT22;19031;51.400;6.770;2023-04-23T09:41:50;21.20;99.90
32614;DHT22;19031;51.400;6.770;2023-04-23T09:44:18;21.20;99.90
32614;DHT22;19031;51.400;6.770;2023-04-23T09:46:49;21.40;99.90
32614;DHT22;19031;51.400;6.770;2023-04-23T09:49:15;21.60;99.90
32614;DHT22;19031;51.400;6.770;2023-04-23T09:51:42;22.10;99.90
32614;DHT22;19031;51.400;6.770;2023-04-23T09:54:21;22.20;99.90
32614;DHT22;19031;51.400;6.770;2023-04-23T09:56:52;22.60;99.90
32614;DHT22;19031;51.400;6.770;2023-04-23T09:59:29;23.00;99.90
32614;DHT22;19031;51.400;6.770;2023-04-23T10:01:56;23.00;99.90
32614;DHT22;19031;51.400;6.770;2023-04-23T10:04:25;23.20;99.90
32614;DHT22;19031;51.400;6.770;2023-04-23T10:06:56;23.20;99.90
32614;DHT22;19031;51.400;6.770;2023-04-23T10:09:22;23.10;99.90
32614;DHT22;19031;51.400;6.770;2023-04-23T10:12:00;23.10;99.90
32614;DHT22;19031;51.400;6.770;2023-04-23T10:14:27;22.90;99.90
32614;DHT22;19031;51.400;6.770;2023-04-23T10:17:03;22.30;99.90
32614;DHT22;19031;51.400;6.770;2023-04-23T10:19:30;21.90;99.90
32614;DHT22;19031;51.400;6.770;2023-04-23T10:21:58;21.80;99.90
32614;DHT22;19031;51.400;6.770;2023-04-23T10:24:31;21.60;99.90
32614;DHT22;19031;51.400;6.770;2023-04-23T10:27:02;21.60;99.90
32614;DHT22;19031;51.400;6.770;2023-04-23T10:29:33;21.90;99.90
32614;DHT22;19031;51.400;6.770;2023-04-23T10:32:02;22.10;99.90
32614;DHT22;19031;51.400;6.770;2023-04-23T10:34:30;22.30;99.90
32614;DHT22;19031;51.400;6.770;2023-04-23T10:36:58;22.50;99.90
32614;DHT22;19031;51.400;6.770;2023-04-23T10:39:27;22.50;99.90
32614;DHT22;19031;51.400;6.770;2023-04-23T10:41:54;22.60;99.90
32614;DHT22;19031;51.400;6.770;2023-04-23T10:44:20;22.90;99.90
32614;DHT22;19031;51.400;6.770;2023-04-23T10:46:53;23.40;99.90
32614;DHT22;19031;51.400;6.770;2023-04-23T10:49:23;23.40;99.90
32614;DHT22;19031;51.400;6.770;2023-04-23T10:52:30;23.00;99.90
32614;DHT22;19031;51.400;6.770;2023-04-23T10:54:56;22.50;99.90
32614;DHT22;19031;51.400;6.770;2023-04-23T10:57:22;22.10;99.90
32614;DHT22;19031;51.400;6.770;2023-04-23T10:59:53;22.40;99.90
32614;DHT22;19031;51.400;6.770;2023-04-23T11:02:24;22.10;99.90
32614;DHT22;19031;51.400;6.770;2023-04-23T11:04:57;22.70;99.90
32614;DHT22;19031;51.400;6.770;2023-04-23T11:07:32;22.70;99.90
32614;DHT22;19031;51.400;6.770;2023-04-23T11:09:59;22.70;99.90
32614;DHT22;19031;51.400;6.770;2023-04-23T11:15:00;22.90;99.90
32614;DHT22;19031;51.400;6.770;2023-04-23T11:22:41;23.10;99.90
32614;DHT22;19031;51.400;6.770;2023-04-23T11:25:11;23.20;99.90
32614;DHT22;19031;51.400;6.770;2023-04-23T11:27:45;23.10;99.90
32614;DHT22;19031;51.400;6.770;2023-04-23T11:32:40;22.80;99.90
32614;DHT22;19031;51.400;6.770;2023-04-23T11:35:06;22.80;99.90
32614;DHT22;19031;51.400;6.770;2023-04-23T11:37:38;22.50;99.10
32614;DHT22;19031;51.400;6.770;2023-04-23T11:40:06;22.10;99.90
32614;DHT22;19031;51.400;6.770;2023-04-23T11:42:49;22.20;99.90
32614;DHT22;19031;51.400;6.770;2023-04-23T11:45:15;22.20;99.80
32614;DHT22;19031;51.400;6.770;2023-04-23T11:47:43;22.20;99.00
32614;DHT22;19031;51.400;6.770;2023-04-23T11:50:09;22.00;99.80
32614;DHT22;19031;51.400;6.770;2023-04-23T11:52:35;21.90;99.90
32614;DHT22;19031;51.400;6.770;2023-04-23T11:55:07;22.00;99.90
32614;DHT22;19031;51.400;6.770;2023-04-23T11:57:39;22.30;99.90
32614;DHT22;19031;51.400;6.770;2023-04-23T12:00:15;22.50;99.70
32614;DHT22;19031;51.400;6.770;2023-04-23T12:02:55;22.60;98.80
32614;DHT22;19031;51.400;6.770;2023-04-23T12:05:31;22.70;99.20
32614;DHT22;19031;51.400;6.770;2023-04-23T12:08:36;22.80;98.20
32614;DHT22;19031;51.400;6.770;2023-04-23T12:11:04;22.70;98.30
32614;DHT22;19031;51.400;6.770;2023-04-23T12:13:31;22.70;98.60
32614;DHT22;19031;51.400;6.770;2023-04-23T12:16:02;22.70;96.90
32614;DHT22;19031;51.400;6.770;2023-04-23T12:18:32;22.60;98.10
32614;DHT22;19031;51.400;6.770;2023-04-23T12:21:05;22.60;96.30
32614;DHT22;19031;51.400;6.770;2023-04-23T12:23:31;22.50;96.60
32614;DHT22;19031;51.400;6.770;2023-04-23T12:26:01;22.50;96.30
32614;DHT22;19031;51.400;6.770;2023-04-23T12:28:27;22.00;97.40
32614;DHT22;19031;51.400;6.770;2023-04-23T12:30:59;22.20;97.30
32614;DHT22;19031;51.400;6.770;2023-04-23T12:33:28;22.60;96.50
32614;DHT22;19031;51.400;6.770;2023-04-23T12:35:54;22.80;95.70
32614;DHT22;19031;51.400;6.770;2023-04-23T12:38:22;23.30;96.10
32614;DHT22;19031;51.400;6.770;2023-04-23T12:40:55;23.70;94.70
32614;DHT22;19031;51.400;6.770;2023-04-23T12:43:21;23.80;94.10
32614;DHT22;19031;51.400;6.770;2023-04-23T12:45:47;23.90;94.90
32614;DHT22;19031;51.400;6.770;2023-04-23T12:48:14;23.80;93.50
32614;DHT22;19031;51.400;6.770;2023-04-23T12:50:40;24.00;93.00
32614;DHT22;19031;51.400;6.770;2023-04-23T12:53:06;24.50;93.10
32614;DHT22;19031;51.400;6.770;2023-04-23T12:55:32;24.90;92.40
32614;DHT22;19031;51.400;6.770;2023-04-23T12:57:58;25.30;91.30
32614;DHT22;19031;51.400;6.770;2023-04-23T13:00:24;26.00;88.60
32614;DHT22;19031;51.400;6.770;2023-04-23T13:02:50;26.40;81.60
32614;DHT22;19031;51.400;6.770;2023-04-23T13:05:16;26.30;83.60
32614;DHT22;19031;51.400;6.770;2023-04-23T13:07:43;26.50;83.80
32614;DHT22;19031;51.400;6.770;2023-04-23T13:10:09;26.30;80.00
32614;DHT22;19031;51.400;6.770;2023-04-23T13:12:35;26.20;83.40
32614;DHT22;19031;51.400;6.770;2023-04-23T13:15:00;26.40;77.20
32614;DHT22;19031;51.400;6.770;2023-04-23T13:17:26;25.80;81.40
32614;DHT22;19031;51.400;6.770;2023-04-23T13:19:55;25.70;80.40
32614;DHT22;19031;51.400;6.770;2023-04-23T13:22:21;25.80;80.70
32614;DHT22;19031;51.400;6.770;2023-04-23T13:24:47;25.70;78.20
32614;DHT22;19031;51.400;6.770;2023-04-23T13:27:13;25.20;82.30
32614;DHT22;19031;51.400;6.770;2023-04-23T13:29:39;24.70;79.60
32614;DHT22;19031;51.400;6.770;2023-04-23T13:32:05;24.20;82.40
32614;DHT22;19031;51.400;6.770;2023-04-23T13:34:31;23.90;83.20
32614;DHT22;19031;51.400;6.770;2023-04-23T13:36:58;24.10;85.30
32614;DHT22;19031;51.400;6.770;2023-04-23T13:39:25;23.90;84.80
32614;DHT22;19031;51.400;6.770;2023-04-23T13:41:50;23.60;84.20
32614;DHT22;19031;51.400;6.770;2023-04-23T13:44:16;23.60;86.40
32614;DHT22;19031;51.400;6.770;2023-04-23T13:46:41;23.40;86.00
32614;DHT22;19031;51.400;6.770;2023-04-23T13:49:07;23.30;86.50
32614;DHT22;19031;51.400;6.770;2023-04-23T13:51:33;23.10;87.80
32614;DHT22;19031;51.400;6.770;2023-04-23T13:53:59;23.20;91.70
32614;DHT22;19031;51.400;6.770;2023-04-23T13:56:26;23.20;89.70
32614;DHT22;19031;51.400;6.770;2023-04-23T13:58:51;23.30;89.30
32614;DHT22;19031;51.400;6.770;2023-04-23T14:01:17;23.20;90.30
32614;DHT22;19031;51.400;6.770;2023-04-23T14:03:43;23.30;90.60
32614;DHT22;19031;51.400;6.770;2023-04-23T14:06:09;23.20;88.60
32614;DHT22;19031;51.400;6.770;2023-04-23T14:08:35;23.00;88.40
32614;DHT22;19031;51.400;6.770;2023-04-23T14:11:02;22.30;89.60
32614;DHT22;19031;51.400;6.770;2023-04-23T14:13:28;22.30;89.00
32614;DHT22;19031;51.400;6.770;2023-04-23T14:15:54;22.30;90.70
32614;DHT22;19031;51.400;6.770;2023-04-23T14:18:20;22.30;92.50
32614;DHT22;19031;51.400;6.770;2023-04-23T14:20:45;22.40;90.50
32614;DHT22;19031;51.400;6.770;2023-04-23T14:26:04;22.20;94.60
32614;DHT22;19031;51.400;6.770;2023-04-23T14:28:38;22.20;94.30
32614;DHT22;19031;51.400;6.770;2023-04-23T14:31:04;22.10;93.10
32614;DHT22;19031;51.400;6.770;2023-04-23T14:33:30;21.90;94.60
32614;DHT22;19031;51.400;6.770;2023-04-23T14:35:56;22.00;94.50
32614;DHT22;19031;51.400;6.770;2023-04-23T14:38:21;21.90;93.30
32614;DHT22;19031;51.400;6.770;2023-04-23T14:40:47;21.70;94.00
32614;DHT22;19031;51.400;6.770;2023-04-23T14:43:13;21.60;93.80
32614;DHT22;19031;51.400;6.770;2023-04-23T14:45:38;21.40;93.40
32614;DHT22;19031;51.400;6.770;2023-04-23T14:48:04;21.20;93.60
32614;DHT22;19031;51.400;6.770;2023-04-23T14:50:30;21.00;92.10
32614;DHT22;19031;51.400;6.770;2023-04-23T14:52:55;20.80;93.30
32614;DHT22;19031;51.400;6.770;2023-04-23T14:55:23;20.70;93.80
32614;DHT22;19031;51.400;6.770;2023-04-23T14:57:48;20.30;93.10
32614;DHT22;19031;51.400;6.770;2023-04-23T15:00:15;20.20;93.00
32614;DHT22;19031;51.400;6.770;2023-04-23T15:02:41;20.10;93.90
32614;DHT22;19031;51.400;6.770;2023-04-23T15:05:08;20.00;93.60
32614;DHT22;19031;51.400;6.770;2023-04-23T15:07:35;20.00;94.00
32614;DHT22;19031;51.400;6.770;2023-04-23T15:10:01;20.00;94.50
32614;DHT22;19031;51.400;6.770;2023-04-23T15:15:13;19.80;94.20
32614;DHT22;19031;51.400;6.770;2023-04-23T15:17:39;19.50;94.50
32614;DHT22;19031;51.400;6.770;2023-04-23T15:20:05;19.40;94.50
32614;DHT22;19031;51.400;6.770;2023-04-23T15:22:31;19.10;95.00
32614;DHT22;19031;51.400;6.770;2023-04-23T15:24:56;18.90;96.70
32614;DHT22;19031;51.400;6.770;2023-04-23T15:27:22;18.80;98.20
32614;DHT22;19031;51.400;6.770;2023-04-23T15:29:48;18.60;99.90
32614;DHT22;19031;51.400;6.770;2023-04-23T15:32:15;18.40;99.90
32614;DHT22;19031;51.400;6.770;2023-04-23T15:34:41;18.20;99.90
32614;DHT22;19031;51.400;6.770;2023-04-23T15:37:06;18.00;99.90
32614;DHT22;19031;51.400;6.770;2023-04-23T15:39:32;17.80;99.90
32614;DHT22;19031;51.400;6.770;2023-04-23T15:41:57;17.60;99.90
32614;DHT22;19031;51.400;6.770;2023-04-23T15:44:23;17.40;99.90
32614;DHT22;19031;51.400;6.770;2023-04-23T15:46:50;17.20;99.90
32614;DHT22;19031;51.400;6.770;2023-04-23T15:49:16;17.00;99.90
32614;DHT22;19031;51.400;6.770;2023-04-23T15:51:41;16.90;99.90